Time;durP1;ratioP1;P1;durP2;ratioP2;P2;SDS_P1;SDS_P2;PMS_P1;PMS_P2;Temp;Humidity;BMP_temperature;BMP_pressure;BME280_temperature;BME280_humidity;BME280_pressure;Samples;Min_cycle;Max_cycle;Signal;HPM_P1;HPM_P2
2023/11/18 00:00:35;;;;;;;2.45;1.83;;;;;;;;;;4973618;28;20054;-51
2023/11/18 00:03:01;;;;;;;5.15;2.55;;;;;;;;;;4973563;28;20081;-51
2023/11/18 00:05:27;;;;;;;3.70;2.55;;;7.20;99.90;;;;;;4973410;28;20042;-51
2023/11/18 00:07:52;;;;;;;3.63;2.00;;;7.30;99.90;;;;;;4973365;28;20054;-52
2023/11/18 00:10:18;;;;;;;3.00;2.22;;;7.30;99.90;;;;;;4973385;28;20065;-51
2023/11/18 00:12:44;;;;;;;4.47;2.33;;;7.20;99.90;;;;;;4973511;28;20030;-51
2023/11/18 00:15:13;;;;;;;2.47;1.70;;;7.20;99.90;;;;;;4938921;28;20035;-51
2023/11/18 00:17:38;;;;;;;2.75;2.33;;;7.20;99.90;;;;;;4973680;28;20441;-52
2023/11/18 00:20:09;;;;;;;3.13;2.38;;;7.20;99.90;;;;;;4973390;28;20109;-52
2023/11/18 00:22:35;;;;;;;3.47;2.10;;;7.20;99.90;;;;;;4924828;28;20070;-51
2023/11/18 00:25:05;;;;;;;2.38;1.73;;;7.20;99.90;;;;;;4973650;28;20459;-51
2023/11/18 00:27:31;;;;;;;3.70;2.80;;;7.10;99.90;;;;;;4973595;28;20660;-51
2023/11/18 00:29:57;;;;;;;4.07;2.72;;;7.20;99.90;;;;;;4954983;28;20043;-51
2023/11/18 00:32:22;;;;;;;3.83;2.58;;;7.20;99.90;;;;;;4973304;28;20027;-51
2023/11/18 00:34:48;;;;;;;2.75;2.03;;;7.20;99.90;;;;;;4973328;28;20033;-51
2023/11/18 00:37:14;;;;;;;5.53;2.50;;;7.10;99.90;;;;;;4938811;28;20114;-52
2023/11/18 00:39:41;;;;;;;2.40;2.05;;;;;;;;;;4973208;28;20031;-51
2023/11/18 00:42:07;;;;;;;3.05;1.98;;;7.00;99.90;;;;;;4939212;28;20046;-52
2023/11/18 00:44:32;;;;;;;2.08;1.85;;;7.00;99.90;;;;;;4973187;28;20061;-51
2023/11/18 00:46:58;;;;;;;3.00;2.45;;;6.90;99.90;;;;;;4973477;28;20169;-51
2023/11/18 00:49:25;;;;;;;7.03;2.38;;;6.90;99.90;;;;;;4973152;28;20121;-52
2023/11/18 00:51:51;;;;;;;4.78;2.80;;;7.00;99.90;;;;;;4939046;28;20190;-51
2023/11/18 00:54:17;;;;;;;2.58;1.75;;;7.00;99.90;;;;;;4972920;28;20106;-51
2023/11/18 00:56:42;;;;;;;2.42;1.98;;;7.00;99.90;;;;;;4973088;28;20027;-51
2023/11/18 00:59:08;;;;;;;3.22;2.58;;;7.00;99.90;;;;;;4972846;28;20041;-51
2023/11/18 01:01:34;;;;;;;3.22;2.35;;;7.00;99.90;;;;;;4941658;28;20039;-51
2023/11/18 01:04:00;;;;;;;3.28;2.05;;;7.00;99.90;;;;;;4976847;28;20030;-51
2023/11/18 01:06:26;;;;;;;5.32;3.17;;;6.90;99.90;;;;;;4976697;28;20501;-51
2023/11/18 01:08:52;;;;;;;2.58;1.98;;;6.90;99.90;;;;;;4976813;28;20026;-52
2023/11/18 01:11:19;;;;;;;2.92;2.30;;;6.90;99.90;;;;;;4976998;28;20069;-51
2023/11/18 01:13:49;;;;;;;2.83;2.40;;;6.90;99.90;;;;;;4976688;28;20031;-51
2023/11/18 01:16:16;;;;;;;4.90;2.75;;;6.90;99.90;;;;;;4976688;28;20474;-51
2023/11/18 01:18:42;;;;;;;2.13;1.92;;;6.90;99.90;;;;;;4958273;28;20035;-51
2023/11/18 01:21:09;;;;;;;2.55;1.92;;;6.80;99.90;;;;;;4977027;28;20042;-51
2023/11/18 01:23:38;;;;;;;3.53;2.20;;;6.80;99.90;;;;;;4976785;28;20034;-51
2023/11/18 01:26:05;;;;;;;2.05;1.85;;;6.80;99.90;;;;;;4976439;28;20389;-51
2023/11/18 01:28:36;;;;;;;4.25;2.20;;;6.90;99.90;;;;;;4942349;28;20050;-51
2023/11/18 01:31:09;;;;;;;2.97;2.25;;;6.90;99.90;;;;;;4976351;28;20114;-51
2023/11/18 01:33:37;;;;;;;1.38;1.15;;;6.80;99.90;;;;;;4944175;28;20125;-51
2023/11/18 01:36:03;;;;;;;2.92;1.80;;;6.70;99.90;;;;;;4976211;28;20081;-51
2023/11/18 01:38:30;;;;;;;1.60;1.20;;;6.70;99.90;;;;;;4910078;28;20051;-52
2023/11/18 01:40:56;;;;;;;2.30;1.77;;;6.60;99.90;;;;;;4976212;28;20034;-52
2023/11/18 01:43:22;;;;;;;1.60;1.33;;;6.60;99.90;;;;;;4976372;28;20109;-52
2023/11/18 01:45:48;;;;;;;3.22;2.20;;;6.70;99.90;;;;;;4976297;28;20122;-52
2023/11/18 01:48:15;;;;;;;4.20;2.35;;;6.70;99.90;;;;;;4976030;28;20031;-51
2023/11/18 01:50:47;;;;;;;2.88;2.28;;;6.60;99.90;;;;;;4976095;28;20062;-51
2023/11/18 01:53:14;;;;;;;3.17;2.20;;;6.60;99.90;;;;;;4975952;28;20050;-51
2023/11/18 01:55:40;;;;;;;2.85;1.98;;;6.60;99.90;;;;;;4976079;28;20113;-51
2023/11/18 01:58:10;;;;;;;1.90;1.67;;;6.60;99.90;;;;;;4957604;28;20043;-51
2023/11/18 02:00:39;;;;;;;2.13;1.80;;;6.50;99.90;;;;;;4975897;28;20062;-52
2023/11/18 02:03:05;;;;;;;2.75;2.15;;;6.40;99.90;;;;;;4975684;28;20026;-51
2023/11/18 02:05:35;;;;;;;2.33;1.73;;;6.40;99.90;;;;;;4975921;28;20035;-52
2023/11/18 02:08:04;;;;;;;2.35;1.65;;;6.40;99.90;;;;;;4975893;28;20023;-51
2023/11/18 02:10:47;;;;;;;2.45;1.98;;;6.30;99.90;;;;;;4975493;28;20526;-51
2023/11/18 02:13:26;;;;;;;2.90;2.13;;;6.40;99.90;;;;;;4956930;28;20057;-51
2023/11/18 02:15:59;;;;;;;2.03;1.50;;;6.40;99.90;;;;;;4975590;28;20372;-51
2023/11/18 02:18:26;;;;;;;2.22;1.83;;;6.40;99.90;;;;;;4975317;28;20478;-52
2023/11/18 02:20:57;;;;;;;2.90;2.03;;;6.50;99.90;;;;;;4975388;28;20098;-52
2023/11/18 02:23:23;;;;;;;1.83;1.63;;;6.50;99.90;;;;;;4972908;28;20450;-51
2023/11/18 02:25:49;;;;;;;3.13;2.25;;;6.40;99.90;;;;;;4975613;28;20081;-51
2023/11/18 02:28:15;;;;;;;1.80;1.45;;;6.40;99.90;;;;;;4941219;28;20062;-51
2023/11/18 02:30:42;;;;;;;4.35;2.10;;;6.30;99.90;;;;;;4975258;28;20045;-51
2023/11/18 02:33:14;;;;;;;4.55;1.77;;;6.30;99.90;;;;;;4975166;28;20483;-51
2023/11/18 02:36:09;;;;;;;3.08;2.03;;;6.30;99.90;;;;;;4975139;28;20411;-51
2023/11/18 02:38:45;;;;;;;3.97;1.67;;;6.40;99.90;;;;;;4975261;28;20081;-52
2023/11/18 02:41:12;;;;;;;3.67;2.15;;;6.30;99.90;;;;;;4975026;28;20118;-51
2023/11/18 02:43:40;;;;;;;2.95;1.63;;;6.30;99.90;;;;;;4956814;28;20045;-51
2023/11/18 02:46:07;;;;;;;1.88;1.67;;;6.30;99.90;;;;;;4974823;28;20117;-51
2023/11/18 02:48:35;;;;;;;2.33;1.90;;;6.30;99.90;;;;;;4975281;28;20031;-52
2023/11/18 02:51:01;;;;;;;1.30;1.20;;;6.40;99.90;;;;;;4974804;28;20058;-51
2023/11/18 02:53:27;;;;;;;2.78;1.60;;;6.30;99.90;;;;;;4974992;28;20371;-51
2023/11/18 02:55:53;;;;;;;2.60;1.88;;;6.30;99.90;;;;;;4974755;28;20117;-51
2023/11/18 02:58:20;;;;;;;1.67;1.10;;;6.30;99.90;;;;;;4974692;28;20027;-51
2023/11/18 03:00:46;;;;;;;1.92;1.63;;;6.20;99.90;;;;;;4974717;28;20486;-51
2023/11/18 03:03:11;;;;;;;1.20;1.10;;;6.20;99.90;;;;;;4940539;28;20041;-51
2023/11/18 03:05:38;;;;;;;3.70;1.92;;;6.20;99.90;;;;;;4974545;28;20034;-51
2023/11/18 03:08:06;;;;;;;3.72;1.23;;;6.20;99.90;;;;;;4974603;28;20034;-51
2023/11/18 03:10:34;;;;;;;2.72;1.70;;;6.20;99.90;;;;;;4973972;28;20109;-52
2023/11/18 03:13:01;;;;;;;2.90;1.75;;;6.30;99.90;;;;;;4974367;28;20386;-51
2023/11/18 03:15:27;;;;;;;1.65;1.48;;;6.20;99.90;;;;;;4974541;28;20094;-51
2023/11/18 03:17:53;;;;;;;2.70;1.70;;;6.20;99.90;;;;;;4924695;28;20042;-52
2023/11/18 03:20:20;;;;;;;1.73;1.35;;;6.30;99.90;;;;;;4974531;28;20537;-51
2023/11/18 03:22:47;;;;;;;2.50;1.60;;;6.30;99.90;;;;;;4974106;28;20027;-51
2023/11/18 03:25:13;;;;;;;1.55;1.45;;;6.30;99.90;;;;;;4974137;28;20479;-51
2023/11/18 03:27:39;;;;;;;2.13;1.58;;;6.30;99.90;;;;;;4974158;28;20045;-52
2023/11/18 03:30:25;;;;;;;1.42;1.23;;;6.30;99.90;;;;;;4974336;28;20026;-51
2023/11/18 03:32:51;;;;;;;1.90;1.25;;;6.30;99.90;;;;;;4914233;29;20044;-52
2023/11/18 03:35:17;;;;;;;1.58;1.27;;;6.30;99.90;;;;;;4914420;29;20128;-51
2023/11/18 03:37:42;;;;;;;3.05;1.90;;;6.30;99.90;;;;;;4914362;29;20205;-52
2023/11/18 03:40:10;;;;;;;2.38;1.70;;;6.30;99.90;;;;;;4914148;29;20036;-51
2023/11/18 03:42:37;;;;;;;3.05;2.00;;;6.30;99.90;;;;;;4851949;29;20044;-52
2023/11/18 03:45:04;;;;;;;1.90;1.45;;;6.20;99.90;;;;;;4914124;29;20043;-51
2023/11/18 03:47:30;;;;;;;3.03;1.70;;;6.20;99.90;;;;;;4882824;29;20044;-51
2023/11/18 03:49:57;;;;;;;2.45;1.60;;;6.20;99.90;;;;;;4914052;29;20043;-51
2023/11/18 03:52:22;;;;;;;1.90;1.63;;;6.20;99.90;;;;;;4913991;29;20113;-51
2023/11/18 03:54:48;;;;;;;1.88;1.65;;;6.20;99.90;;;;;;4867005;29;20032;-51
2023/11/18 03:57:14;;;;;;;2.42;1.75;;;6.20;99.90;;;;;;4882486;29;20040;-51
2023/11/18 03:59:41;;;;;;;2.00;1.52;;;6.20;99.90;;;;;;4913970;29;20091;-51
2023/11/18 04:02:07;;;;;;;1.42;1.30;;;6.20;99.90;;;;;;4914001;29;20032;-51
2023/11/18 04:04:33;;;;;;;1.70;1.50;;;6.10;99.90;;;;;;4913886;29;20040;-51
2023/11/18 04:07:00;;;;;;;1.75;1.30;;;6.10;99.90;;;;;;4913668;29;20028;-51
2023/11/18 04:09:27;;;;;;;2.78;1.88;;;6.10;99.90;;;;;;4922758;28;20046;-51
2023/11/18 04:11:53;;;;;;;1.60;1.50;;;6.10;99.90;;;;;;4973409;28;20513;-52
2023/11/18 04:14:19;;;;;;;3.28;1.80;;;6.20;99.90;;;;;;4973633;28;20031;-51
2023/11/18 04:16:49;;;;;;;2.88;1.60;;;6.20;99.90;;;;;;4973640;28;20458;-52
2023/11/18 04:19:15;;;;;;;1.60;1.40;;;6.20;99.90;;;;;;4973492;28;20117;-51
2023/11/18 04:21:41;;;;;;;2.38;1.85;;;6.20;99.90;;;;;;4973566;28;20034;-52
2023/11/18 04:24:07;;;;;;;2.10;1.80;;;6.30;99.90;;;;;;4973418;28;20379;-51
2023/11/18 04:26:32;;;;;;;3.75;1.60;;;6.30;99.90;;;;;;4923193;28;20094;-51
2023/11/18 04:28:58;;;;;;;2.67;1.63;;;6.30;99.90;;;;;;4955730;28;20026;-52
2023/11/18 04:31:25;;;;;;;1.95;1.58;;;6.20;99.90;;;;;;4939090;28;20038;-51
2023/11/18 04:33:50;;;;;;;1.83;1.52;;;6.20;99.90;;;;;;4973091;28;20061;-52
2023/11/18 04:36:16;;;;;;;2.05;1.38;;;6.20;99.90;;;;;;4922390;28;20062;-51
2023/11/18 04:38:45;;;;;;;2.03;1.60;;;6.20;99.90;;;;;;4973256;28;20031;-52
2023/11/18 04:41:11;;;;;;;2.90;2.20;;;6.20;99.90;;;;;;4973452;28;20065;-51
2023/11/18 04:43:38;;;;;;;2.33;1.60;;;6.20;99.90;;;;;;4973209;28;20498;-51
2023/11/18 04:46:05;;;;;;;1.92;1.63;;;6.10;99.90;;;;;;4923699;28;20046;-51
2023/11/18 04:48:31;;;;;;;2.90;1.90;;;6.10;99.90;;;;;;4973583;28;20023;-50
2023/11/18 04:50:56;;;;;;;2.47;1.88;;;6.00;99.90;;;;;;4970534;28;20066;-52
2023/11/18 04:53:22;;;;;;;2.25;1.45;;;6.00;99.90;;;;;;4963733;28;20446;-51
2023/11/18 04:55:48;;;;;;;4.05;1.83;;;5.90;99.90;;;;;;4953706;29;20031;-51
2023/11/18 04:58:15;;;;;;;2.53;1.70;;;6.00;99.90;;;;;;4919822;29;20036;-51
2023/11/18 05:00:42;;;;;;;1.80;1.50;;;5.90;99.90;;;;;;4953700;28;20039;-51
2023/11/18 05:03:12;;;;;;;2.42;1.85;;;5.90;99.90;;;;;;4953826;28;20446;-51
2023/11/18 05:05:39;;;;;;;2.67;1.80;;;5.80;99.90;;;;;;4953696;29;20043;-50
2023/11/18 05:08:08;;;;;;;3.38;1.50;;;;;;;;;;4953570;29;20035;-51
2023/11/18 05:10:36;;;;;;;3.20;1.77;;;5.60;99.90;;;;;;4953725;29;20054;-51
2023/11/18 05:13:02;;;;;;;2.08;1.88;;;5.60;99.90;;;;;;4953500;29;20031;-51
2023/11/18 05:15:29;;;;;;;1.05;1.00;;;5.60;99.90;;;;;;4953748;29;20031;-51
2023/11/18 05:17:55;;;;;;;2.28;1.63;;;5.50;99.90;;;;;;4953433;28;20042;-51
2023/11/18 05:20:21;;;;;;;2.53;1.90;;;5.50;99.90;;;;;;4953528;28;20051;-51
2023/11/18 05:22:47;;;;;;;2.20;1.70;;;5.70;99.90;;;;;;4953833;28;20122;-51
2023/11/18 05:25:13;;;;;;;2.63;1.92;;;;;;;;;;4953537;29;20680;-51
2023/11/18 05:27:43;;;;;;;1.90;1.70;;;5.50;99.90;;;;;;4953605;29;20027;-51
2023/11/18 05:30:10;;;;;;;1.58;1.35;;;5.60;99.90;;;;;;4953832;29;20058;-51
2023/11/18 05:32:37;;;;;;;2.38;1.38;;;5.50;99.90;;;;;;4935296;29;20035;-51
2023/11/18 05:35:04;;;;;;;1.80;1.60;;;5.50;99.90;;;;;;4953332;28;20034;-51
2023/11/18 05:37:35;;;;;;;2.38;1.80;;;5.50;99.90;;;;;;4953572;28;20039;-51
2023/11/18 05:40:06;;;;;;;3.75;1.83;;;5.60;99.90;;;;;;4953246;29;20031;-51
2023/11/18 05:42:35;;;;;;;3.30;2.10;;;5.60;99.90;;;;;;4953447;29;20479;-51
2023/11/18 05:45:01;;;;;;;1.92;1.73;;;5.70;99.90;;;;;;4953423;29;20082;-51
2023/11/18 05:47:27;;;;;;;3.13;2.05;;;5.60;99.90;;;;;;4956046;28;20035;-51
2023/11/18 05:49:54;;;;;;;3.30;1.85;;;5.70;99.90;;;;;;4956740;29;20023;-52
2023/11/18 05:52:20;;;;;;;5.47;2.25;;;5.70;99.90;;;;;;4922795;29;20079;-51
2023/11/18 05:54:50;;;;;;;3.67;1.75;;;5.60;99.90;;;;;;4957176;28;20147;-51
2023/11/18 05:57:19;;;;;;;4.40;2.17;;;5.60;99.90;;;;;;4957182;29;20119;-51
2023/11/18 05:59:47;;;;;;;4.40;2.45;;;5.60;99.90;;;;;;4956694;29;20031;-51
2023/11/18 06:02:18;;;;;;;2.55;2.05;;;5.70;99.90;;;;;;4956679;29;20039;-51
2023/11/18 06:04:47;;;;;;;2.55;2.20;;;5.70;99.90;;;;;;4956868;29;20102;-51
2023/11/18 06:07:16;;;;;;;2.80;2.00;;;5.70;99.90;;;;;;4956583;29;20054;-51
2023/11/18 06:09:45;;;;;;;2.60;1.60;;;5.80;99.90;;;;;;4956584;29;20435;-51
2023/11/18 06:12:12;;;;;;;3.67;2.30;;;;;;;;;;4956586;29;20035;-51
2023/11/18 06:14:38;;;;;;;2.65;2.10;;;5.80;99.90;;;;;;4956483;29;20035;-51
2023/11/18 06:17:04;;;;;;;3.25;1.95;;;5.80;99.90;;;;;;4896739;29;20131;-51
2023/11/18 06:19:30;;;;;;;4.40;2.13;;;5.90;99.90;;;;;;4881256;29;20044;-51
2023/11/18 06:21:55;;;;;;;2.83;2.17;;;5.90;99.90;;;;;;4896830;29;20089;-52
2023/11/18 06:24:21;;;;;;;5.57;2.42;;;6.10;99.90;;;;;;4850320;29;20047;-51
2023/11/18 06:26:49;;;;;;;5.90;2.40;;;6.40;99.90;;;;;;4896775;29;20045;-51
2023/11/18 06:29:15;;;;;;;4.53;2.67;;;6.30;99.90;;;;;;4896799;29;20040;-51
2023/11/18 06:31:42;;;;;;;3.40;2.58;;;6.40;99.90;;;;;;4896818;29;20081;-51
2023/11/18 06:34:08;;;;;;;2.50;2.20;;;6.30;99.90;;;;;;4896678;29;20040;-51
2023/11/18 06:36:34;;;;;;;4.38;2.45;;;7.60;99.90;;;;;;4896611;29;20119;-51
2023/11/18 06:39:00;;;;;;;4.30;2.80;;;7.80;99.90;;;;;;4896555;29;20053;-51
2023/11/18 06:41:33;;;;;;;5.85;2.90;;;;;;;;;;4896675;29;20032;-51
2023/11/18 06:44:02;;;;;;;4.65;2.33;;;10.80;99.90;;;;;;4852504;29;20044;-51
2023/11/18 06:46:33;;;;;;;2.60;2.22;;;;;;;;;;4896569;29;20393;-51
2023/11/18 06:49:03;;;;;;;2.40;2.08;;;13.00;99.90;;;;;;4948844;29;20039;-51
2023/11/18 06:51:31;;;;;;;3.13;2.92;;;13.10;97.10;;;;;;4955608;28;20501;-51
2023/11/18 06:53:58;;;;;;;3.28;2.03;;;;;;;;;;4955748;29;20106;-51
2023/11/18 06:56:27;;;;;;;3.67;2.22;;;12.60;99.90;;;;;;4955755;29;20475;-51
2023/11/18 06:58:54;;;;;;;2.90;2.60;;;;;;;;;;4954911;28;20086;-52
2023/11/18 07:01:20;;;;;;;3.10;2.55;;;;;;;;;;4955548;28;20031;-51
2023/11/18 07:03:53;;;;;;;2.63;2.08;;;14.70;94.70;;;;;;4955459;29;20027;-51
2023/11/18 07:06:22;;;;;;;3.95;2.33;;;14.90;93.50;;;;;;4953278;29;20059;-51
2023/11/18 07:08:51;;;;;;;4.20;2.08;;;;;;;;;;4921402;29;20070;-51
2023/11/18 07:11:18;;;;;;;5.82;2.35;;;15.30;99.90;;;;;;4955538;28;20065;-51
2023/11/18 07:13:44;;;;;;;2.42;2.22;;;15.40;92.20;;;;;;4955676;28;20090;-51
2023/11/18 07:16:10;;;;;;;3.67;2.75;;;15.10;91.90;;;;;;4955323;29;20037;-52
2023/11/18 07:18:37;;;;;;;2.55;2.08;;;;;;;;;;4955367;29;20027;-51
2023/11/18 07:21:05;;;;;;;3.17;2.58;;;15.70;94.10;;;;;;4936890;29;20465;-51
2023/11/18 07:23:34;;;;;;;2.60;2.40;;;;;;;;;;4937196;29;20035;-51
2023/11/18 07:26:00;;;;;;;3.33;3.08;;;15.90;99.90;;;;;;4954859;29;20031;-51
2023/11/18 07:28:27;;;;;;;5.30;5.00;;;16.90;93.00;;;;;;4955007;29;20027;-51
2023/11/18 07:30:53;;;;;;;5.95;5.57;;;16.10;89.90;;;;;;4954921;29;20051;-52
2023/11/18 07:33:20;;;;;;;5.82;5.43;;;16.10;90.10;;;;;;4955359;29;20053;-51
2023/11/18 07:35:48;;;;;;;6.97;6.45;;;15.60;90.30;;;;;;4955018;29;20483;-51
2023/11/18 07:38:19;;;;;;;8.43;7.93;;;15.80;90.60;;;;;;4954601;29;20039;-51
2023/11/18 07:40:46;;;;;;;16.50;15.70;;;;;;;;;;4937141;29;20044;-51
2023/11/18 07:43:14;;;;;;;20.85;19.88;;;15.00;99.90;;;;;;4954578;29;20035;-51
2023/11/18 07:45:42;;;;;;;24.33;23.02;;;;;;;;;;4954913;28;20081;-51
2023/11/18 07:48:11;;;;;;;13.60;12.80;;;17.30;99.90;;;;;;4954529;29;20027;-52
2023/11/18 07:50:41;;;;;;;12.05;11.40;;;16.40;88.90;;;;;;4954586;29;20042;-51
2023/11/18 07:53:07;;;;;;;17.90;17.00;;;16.70;89.50;;;;;;4954371;29;20027;-52
2023/11/18 07:55:39;;;;;;;10.60;9.90;;;16.70;88.70;;;;;;4954967;28;20027;-51
2023/11/18 07:58:11;;;;;;;;;;;16.60;88.50;;;;;;4954989;29;20031;-51
2023/11/18 08:00:42;;;;;;;7.82;7.22;;;16.30;88.60;;;;;;4954853;29;19937;-51
2023/11/18 08:03:11;;;;;;;12.63;11.57;;;16.60;88.80;;;;;;4954266;29;20653;-52
2023/11/18 08:05:39;;;;;;;11.82;9.45;;;16.90;89.00;;;;;;4954401;29;20510;-51
2023/11/18 08:08:07;;;;;;;7.80;7.28;;;15.80;89.30;;;;;;4954470;28;20058;-52
2023/11/18 08:10:39;;;;;;;9.07;8.55;;;17.00;88.70;;;;;;4954293;28;20070;-52
2023/11/18 08:13:07;;;;;;;8.48;7.72;;;16.20;88.40;;;;;;4904460;29;20074;-52
2023/11/18 08:15:34;;;;;;;14.50;8.05;;;16.40;88.90;;;;;;4920318;29;20062;-52
2023/11/18 08:18:00;;;;;;;7.38;3.55;;;16.00;91.50;;;;;;4954565;29;20090;-52
2023/11/18 08:20:26;;;;;;;29.77;11.63;;;15.20;88.30;;;;;;4954363;29;20058;-52
2023/11/18 08:22:53;;;;;;;15.65;11.52;;;14.10;89.30;;;;;;4952031;29;20561;-52
2023/11/18 08:25:18;;;;;;;8.00;7.25;;;14.50;90.20;;;;;;4953973;28;20064;-52
2023/11/18 08:27:47;;;;;;;53.78;19.15;;;15.00;90.30;;;;;;4954400;29;20090;-51
2023/11/18 08:30:13;;;;;;;11.13;5.95;;;15.10;89.90;;;;;;4967985;28;20035;-51
2023/11/18 08:32:40;;;;;;;118.30;44.40;;;15.00;90.20;;;;;;4954059;28;20591;-51
2023/11/18 08:35:09;;;;;;;29.08;13.43;;;;;;;;;;4953945;28;20062;-52
2023/11/18 08:37:37;;;;;;;79.70;36.08;;;16.40;96.00;;;;;;4953761;28;20035;-52
2023/11/18 08:40:06;;;;;;;6.40;6.00;;;17.00;89.90;;;;;;4954036;29;20031;-52
2023/11/18 08:42:33;;;;;;;12.25;8.13;;;15.90;88.60;;;;;;4953888;29;20062;-51
2023/11/18 08:45:00;;;;;;;16.80;11.98;;;17.30;89.20;;;;;;4954056;29;20047;-51
2023/11/18 08:47:31;;;;;;;37.72;21.75;;;17.20;87.30;;;;;;4953762;29;20086;-51
2023/11/18 08:49:57;;;;;;;15.48;10.85;;;17.80;87.50;;;;;;4953746;29;20035;-51
2023/11/18 08:52:25;;;;;;;17.85;14.95;;;17.30;87.50;;;;;;4935549;29;20051;-52
2023/11/18 08:57:52;;;;;;;26.75;14.82;;;17.10;87.00;;;;;;4954013;28;20090;-52
2023/11/18 09:01:05;;;;;;;25.50;14.32;;;16.80;86.60;;;;;;4954127;28;20035;-52
2023/11/18 09:03:05;;;;;;;3.78;2.63;;;16.50;89.40;;;;;;4939833;29;20035;-52
2023/11/18 09:05:32;;;;;;;5.28;2.65;;;16.40;87.10;;;;;;4953532;29;20047;-51
2023/11/18 09:08:02;;;;;;;25.40;14.60;;;14.20;87.10;;;;;;4953701;29;20027;-51
2023/11/18 09:10:28;;;;;;;18.52;12.13;;;15.10;89.00;;;;;;4953560;28;20039;-51
2023/11/18 09:12:55;;;;;;;7.85;7.05;;;14.50;89.60;;;;;;4953764;29;20376;-51
2023/11/18 09:15:24;;;;;;;7.60;6.90;;;14.20;90.20;;;;;;4953803;28;20435;-52
2023/11/18 09:17:50;;;;;;;10.57;9.98;;;14.80;89.80;;;;;;4953506;29;20035;-51
2023/11/18 09:20:22;;;;;;;7.25;6.82;;;15.40;89.20;;;;;;4953818;28;20031;-51
2023/11/18 09:22:48;;;;;;;;;;;;;;;;;;4957109;28;20106;-51
2023/11/18 09:25:14;;;;;;;13.35;12.70;;;16.40;93.80;;;;;;4957446;29;19918;-52
2023/11/18 09:27:41;;;;;;;13.48;12.68;;;17.30;86.10;;;;;;4957274;29;20390;-51
2023/11/18 09:30:13;;;;;;;13.70;13.00;;;16.30;86.90;;;;;;4957122;28;20038;-51
2023/11/18 09:32:41;;;;;;;;;;;15.80;86.80;;;;;;4957575;28;20122;-51
2023/11/18 09:35:12;;;;;;;20.48;19.38;;;15.50;88.00;;;;;;4957197;28;19914;-51
2023/11/18 09:37:40;;;;;;;4.57;3.70;;;16.20;87.70;;;;;;4957048;28;20039;-51
2023/11/18 09:40:14;;;;;;;5.68;5.18;;;16.70;87.30;;;;;;4957193;29;20028;-51
2023/11/18 09:42:43;;;;;;;4.93;4.57;;;15.30;86.70;;;;;;4909483;29;20044;-50
2023/11/18 09:45:14;;;;;;;5.35;4.95;;;15.20;87.20;;;;;;4957137;28;20035;-51
2023/11/18 09:47:47;;;;;;;4.60;3.65;;;15.20;88.00;;;;;;4956750;28;20045;-51
2023/11/18 09:50:18;;;;;;;10.43;9.82;;;14.80;87.80;;;;;;4956856;29;20468;-51
2023/11/18 09:52:51;;;;;;;4.30;3.60;;;15.90;88.20;;;;;;4956608;29;20054;-51
2023/11/18 09:55:31;;;;;;;3.88;3.58;;;14.80;87.10;;;;;;4956682;29;20046;-51
2023/11/18 09:58:06;;;;;;;5.50;4.97;;;14.80;88.80;;;;;;4957101;29;20031;-51
2023/11/18 10:00:33;;;;;;;3.38;3.17;;;15.50;89.20;;;;;;4956664;28;20027;-51
2023/11/18 10:03:02;;;;;;;2.40;2.20;;;14.40;88.40;;;;;;4956697;29;20037;-51
2023/11/18 10:05:30;;;;;;;9.60;9.13;;;13.70;89.50;;;;;;4956872;29;20039;-51
2023/11/18 10:07:58;;;;;;;3.33;3.00;;;15.10;90.10;;;;;;4939339;29;20488;-51
2023/11/18 10:10:26;;;;;;;12.55;11.95;;;14.40;89.30;;;;;;4956512;28;20047;-51
2023/11/18 10:12:52;;;;;;;3.67;3.38;;;15.10;90.00;;;;;;4956423;29;20483;-51
2023/11/18 10:15:25;;;;;;;3.45;3.15;;;15.20;88.20;;;;;;4956481;29;20030;-51
2023/11/18 10:18:07;;;;;;;4.35;4.03;;;14.50;88.40;;;;;;4956042;29;20038;-52
2023/11/18 10:20:38;;;;;;;;;;;15.10;89.70;;;;;;4956259;29;20534;-51
2023/11/18 10:23:10;;;;;;;9.13;8.52;;;15.20;88.70;;;;;;4956021;28;20404;-51
2023/11/18 10:25:40;;;;;;;3.33;3.05;;;15.40;87.40;;;;;;4938239;28;20673;-51
2023/11/18 10:28:09;;;;;;;2.88;2.60;;;15.30;87.30;;;;;;4956148;29;20050;-51
2023/11/18 10:30:46;;;;;;;3.28;2.90;;;15.40;88.30;;;;;;4956116;29;20479;-51
2023/11/18 10:33:16;;;;;;;4.43;4.13;;;15.80;87.80;;;;;;4955923;28;20039;-51
2023/11/18 10:35:52;;;;;;;3.50;2.85;;;15.70;87.50;;;;;;4938115;29;20070;-51
2023/11/18 10:38:18;;;;;;;2.70;2.50;;;15.60;88.00;;;;;;4956072;28;20035;-51
2023/11/18 10:40:45;;;;;;;2.95;2.47;;;15.40;86.70;;;;;;4956298;28;20042;-51
2023/11/18 10:43:10;;;;;;;4.18;3.78;;;14.90;88.60;;;;;;4921798;29;20040;-52
2023/11/18 10:45:40;;;;;;;3.92;2.50;;;15.60;88.80;;;;;;4954867;28;20039;-52
2023/11/18 10:48:06;;;;;;;2.17;1.98;;;16.00;87.40;;;;;;4955592;29;20035;-53
2023/11/18 10:50:32;;;;;;;1.40;1.30;;;15.60;86.50;;;;;;4963412;28;20030;-53
2023/11/18 10:53:03;;;;;;;1.70;1.60;;;15.10;86.80;;;;;;4939123;28;20486;-53
2023/11/18 10:55:36;;;;;;;3.33;3.03;;;;;;;;;;4971887;28;20487;-53
2023/11/18 10:58:04;;;;;;;2.50;2.30;;;;;;;;;;4974129;28;20035;-53
2023/11/18 11:00:47;;;;;;;1.98;1.73;;;13.50;99.90;;;;;;4974833;28;20386;-52
2023/11/18 11:03:14;;;;;;;2.92;1.95;;;13.40;88.60;;;;;;4959674;28;20031;-53
2023/11/18 11:05:42;;;;;;;2.50;2.30;;;12.80;88.80;;;;;;4967882;28;20050;-52
2023/11/18 11:08:08;;;;;;;1.90;1.38;;;12.90;90.20;;;;;;4968312;28;20514;-53
2023/11/18 11:10:35;;;;;;;2.38;1.88;;;;;;;;;;4899647;28;20047;-53
2023/11/18 11:13:02;;;;;;;2.63;1.55;;;;;;;;;;4966268;28;20117;-53
2023/11/18 11:15:49;;;;;;;3.03;2.40;;;;;;;;;;4967555;28;20032;-53
2023/11/18 11:18:22;;;;;;;2.30;2.10;;;;;;;;;;4925429;29;20040;-52
2023/11/18 11:20:54;;;;;;;2.13;2.00;;;;;;;;;;4928470;29;20135;-52
2023/11/18 11:23:35;;;;;;;2.72;2.47;;;;;;;;;;4923765;29;20048;-52
2023/11/18 11:26:09;;;;;;;2.60;2.40;;;;;;;;;;4922119;29;20123;-53
2023/11/18 11:28:43;;;;;;;3.95;2.90;;;;;;;;;;4927930;29;20399;-53
2023/11/18 11:31:25;;;;;;;14.73;7.72;;;;;;;;;;4923570;29;20118;-52
2023/11/18 11:33:56;;;;;;;8.73;3.92;;;;;;;;;;4920074;29;20051;-53
2023/11/18 11:36:24;;;;;;;20.50;8.90;;;;;;;;;;4919770;29;20032;-53
2023/11/18 11:38:55;;;;;;;23.13;9.25;;;;;;;;;;4929009;29;20047;-55
2023/11/18 11:41:26;;;;;;;9.90;4.88;;;12.40;99.90;;;;;;4924147;29;20047;-53
2023/11/18 11:43:57;;;;;;;24.23;12.07;;;12.60;90.00;;;;;;4924440;29;20086;-54
2023/11/18 11:46:34;;;;;;;13.23;5.20;;;13.00;90.70;;;;;;4929591;29;20044;-51
2023/11/18 11:49:11;;;;;;;22.08;7.75;;;11.90;90.30;;;;;;4911201;29;20047;-51
2023/11/18 11:51:48;;;;;;;7.93;4.05;;;11.30;96.20;;;;;;4934846;28;20503;-51
2023/11/18 11:54:28;;;;;;;3.25;2.00;;;11.90;91.60;;;;;;4961390;28;20038;-51
2023/11/18 11:57:00;;;;;;;31.95;11.90;;;11.70;91.70;;;;;;4967323;28;20471;-54
2023/11/18 11:59:44;;;;;;;19.27;6.82;;;11.50;91.50;;;;;;4966298;28;20026;-52
2023/11/18 12:02:15;;;;;;;55.30;20.10;;;;;;;;;;4967263;28;20149;-52
2023/11/18 12:04:44;;;;;;;23.98;10.07;;;11.80;95.40;;;;;;4972040;28;20031;-51
2023/11/18 12:07:10;;;;;;;4.25;2.35;;;11.90;96.00;;;;;;4962876;28;20031;-51
2023/11/18 12:09:39;;;;;;;3.83;2.30;;;;;;;;;;4963262;28;20035;-52
2023/11/18 12:12:19;;;;;;;2.63;1.98;;;;;;;;;;4966765;28;20508;-52
2023/11/18 12:14:52;;;;;;;17.75;6.97;;;;;;;;;;4968618;28;20038;-51
2023/11/18 12:17:21;;;;;;;21.60;8.77;;;;;;;;;;4968782;28;20039;-52
2023/11/18 12:19:48;;;;;;;46.60;13.20;;;;;;;;;;4937675;28;20050;-52
2023/11/18 12:22:18;;;;;;;2.40;1.63;;;11.10;99.90;;;;;;4963936;28;20050;-52
2023/11/18 12:25:07;;;;;;;58.15;19.25;;;;;;;;;;4968875;28;20041;-52
2023/11/18 12:28:00;;;;;;;41.15;15.43;;;;;;;;;;4958494;28;20038;-52
2023/11/18 12:30:35;;;;;;;35.08;13.13;;;;;;;;;;4970709;28;20046;-52
2023/11/18 12:33:08;;;;;;;38.88;13.90;;;;;;;;;;4963149;28;20038;-52
2023/11/18 12:35:53;;;;;;;22.55;8.52;;;;;;;;;;4967170;28;20046;-52
2023/11/18 12:38:40;;;;;;;46.75;16.73;;;10.80;99.90;;;;;;4962087;28;20027;-52
2023/11/18 12:41:11;;;;;;;21.30;9.77;;;;;;;;;;4966438;28;20027;-52
2023/11/18 12:43:57;;;;;;;28.17;7.82;;;;;;;;;;4952261;28;20509;-51
2023/11/18 12:46:43;;;;;;;57.85;21.38;;;;;;;;;;4965436;28;20359;-52
2023/11/18 12:49:15;;;;;;;14.75;5.78;;;;;;;;;;4959926;28;20023;-51
2023/11/18 12:51:43;;;;;;;;;;;10.00;95.50;;;;;;4964914;28;20133;-51
2023/11/18 12:54:21;;;;;;;34.67;12.13;;;9.90;94.60;;;;;;4953063;28;19907;-54
2023/11/18 12:56:48;;;;;;;17.90;6.03;;;10.00;94.40;;;;;;4938256;28;20046;-51
2023/11/18 12:59:17;;;;;;;36.25;10.95;;;9.80;93.90;;;;;;4918020;29;20483;-52
2023/11/18 13:01:51;;;;;;;58.55;19.95;;;;;;;;;;4970123;28;20031;-51
2023/11/18 13:04:19;;;;;;;34.80;12.60;;;9.90;99.90;;;;;;4967692;28;20036;-52
2023/11/18 13:06:47;;;;;;;8.32;3.63;;;9.70;93.40;;;;;;4965580;28;20073;-52
2023/11/18 13:09:24;;;;;;;15.23;6.45;;;9.80;96.20;;;;;;4949433;29;20027;-50
2023/11/18 13:11:56;;;;;;;10.80;4.60;;;9.70;93.80;;;;;;4964800;28;20035;-52
2023/11/18 13:14:35;;;;;;;11.20;5.22;;;9.70;93.80;;;;;;4960758;28;20050;-50
2023/11/18 13:17:05;;;;;;;12.13;4.35;;;9.80;93.50;;;;;;4970569;28;20043;-50